createdAt,value
2023-01-23T00:00:01.818Z,26.20
2023-01-23T00:00:27.038Z,25.73
2023-01-23T00:00:49.798Z,26.38
2023-01-23T00:01:14.269Z,26.00
2023-01-23T00:01:36.970Z,25.52
2023-01-23T00:01:59.697Z,26.42
2023-01-23T00:02:25.042Z,26.27
2023-01-23T00:02:47.777Z,26.33
2023-01-23T00:03:10.538Z,25.95
2023-01-23T00:03:34.578Z,26.00
2023-01-23T00:03:57.983Z,25.88
2023-01-23T00:04:21.375Z,25.17
2023-01-23T00:04:44.263Z,25.05
2023-01-23T00:05:08.510Z,24.80
2023-01-23T00:05:31.194Z,24.90
2023-01-23T00:05:58.313Z,25.83
2023-01-23T00:06:22.595Z,25.83
2023-01-23T00:06:46.254Z,24.85
2023-01-23T00:07:09.157Z,24.88
2023-01-23T00:07:31.826Z,25.45
2023-01-23T00:07:54.529Z,25.23
2023-01-23T00:08:17.231Z,24.23
2023-01-23T00:08:40.143Z,23.83
2023-01-23T00:09:02.983Z,24.52
2023-01-23T00:09:25.924Z,24.58
2023-01-23T00:09:48.648Z,24.80
2023-01-23T00:10:12.176Z,24.80
2023-01-23T00:10:35.047Z,24.15
2023-01-23T00:10:58.048Z,24.65
2023-01-23T00:11:22.250Z,24.90
2023-01-23T00:11:44.913Z,24.70
2023-01-23T00:12:07.781Z,24.02
2023-01-23T00:12:31.524Z,25.80
2023-01-23T00:12:54.555Z,25.63
2023-01-23T00:13:17.666Z,26.13
2023-01-23T00:13:40.523Z,26.75
2023-01-23T00:14:03.449Z,26.33
2023-01-23T00:14:26.241Z,25.65
2023-01-23T00:14:48.902Z,25.30
2023-01-23T00:15:12.222Z,25.60
2023-01-23T00:15:35.003Z,25.25
2023-01-23T00:15:57.667Z,25.13
2023-01-23T00:16:21.841Z,26.20
2023-01-23T00:16:45.617Z,25.80
2023-01-23T00:17:08.351Z,25.27
2023-01-23T00:17:31.101Z,24.88
2023-01-23T00:17:56.347Z,25.08
2023-01-23T00:18:19.006Z,24.88
2023-01-23T00:18:41.831Z,24.90
2023-01-23T00:19:04.748Z,24.52
2023-01-23T00:19:27.413Z,24.38
2023-01-23T00:19:52.797Z,24.02
2023-01-23T00:20:15.533Z,24.38
2023-01-23T00:20:38.308Z,24.50
2023-01-23T00:21:04.598Z,24.33
2023-01-23T00:21:29.304Z,24.70
2023-01-23T00:21:52.053Z,24.50
2023-01-23T00:22:16.211Z,25.73
2023-01-23T00:22:38.891Z,24.63
2023-01-23T00:23:01.612Z,25.00
2023-01-23T00:23:24.336Z,25.40
2023-01-23T00:23:48.107Z,24.60
2023-01-23T00:24:12.010Z,24.85
2023-01-23T00:24:34.800Z,24.23
2023-01-23T00:24:57.540Z,24.30
2023-01-23T00:25:20.242Z,24.63
2023-01-23T00:25:43.172Z,24.63
2023-01-23T00:26:06.356Z,24.20
2023-01-23T00:26:30.482Z,25.15
2023-01-23T00:26:53.129Z,24.73
2023-01-23T00:27:15.862Z,24.77
2023-01-23T00:27:38.713Z,25.17
2023-01-23T00:28:01.612Z,24.75
2023-01-23T00:28:24.447Z,24.98
2023-01-23T00:28:47.332Z,25.02
2023-01-23T00:29:10.221Z,25.40
2023-01-23T00:29:32.952Z,25.30
2023-01-23T00:29:55.651Z,24.70
2023-01-23T00:30:18.876Z,24.60
2023-01-23T00:30:42.021Z,25.10
2023-01-23T00:31:05.764Z,24.48
2023-01-23T00:31:30.797Z,24.58
2023-01-23T00:31:53.706Z,24.63
2023-01-23T00:32:16.459Z,24.25
2023-01-23T00:32:39.162Z,25.13
2023-01-23T00:33:01.936Z,25.80
2023-01-23T00:33:24.624Z,24.95
2023-01-23T00:33:47.412Z,25.50
2023-01-23T00:34:12.529Z,26.23
2023-01-23T00:34:35.398Z,26.17
2023-01-23T00:34:58.171Z,25.70
2023-01-23T00:35:20.902Z,24.77
2023-01-23T00:35:43.557Z,26.25
2023-01-23T00:36:07.616Z,26.80
2023-01-23T00:36:32.796Z,26.63
2023-01-23T00:36:55.525Z,26.80
2023-01-23T00:37:18.243Z,26.65
2023-01-23T00:37:40.961Z,26.02
2023-01-23T00:38:03.721Z,26.83
2023-01-23T00:38:26.516Z,26.45
2023-01-23T00:38:49.216Z,27.17
2023-01-23T00:39:15.547Z,26.88
2023-01-23T00:39:38.241Z,27.73
2023-01-23T00:40:00.962Z,27.02
2023-01-23T00:40:23.601Z,26.95
2023-01-23T00:40:46.265Z,26.15
2023-01-23T00:41:09.102Z,25.67
2023-01-23T00:41:31.912Z,26.40
2023-01-23T00:41:54.672Z,26.00
2023-01-23T00:42:17.456Z,26.77
2023-01-23T00:42:40.208Z,27.02
2023-01-23T00:43:02.955Z,27.20
2023-01-23T00:43:25.874Z,27.08
2023-01-23T00:43:50.572Z,27.80
2023-01-23T00:44:13.271Z,28.67
2023-01-23T00:44:36.027Z,28.85
2023-01-23T00:44:58.722Z,28.13
2023-01-23T00:45:21.483Z,27.35
2023-01-23T00:45:44.163Z,28.10
2023-01-23T00:46:07.023Z,27.20
2023-01-23T00:46:29.891Z,27.70
2023-01-23T00:46:55.212Z,28.23
2023-01-23T00:47:17.931Z,28.38
2023-01-23T00:47:40.681Z,26.95
2023-01-23T00:48:03.399Z,27.10
2023-01-23T00:48:26.209Z,27.05
2023-01-23T00:48:48.981Z,27.35
2023-01-23T00:49:11.703Z,27.52
2023-01-23T00:49:34.476Z,29.05
2023-01-23T00:49:59.213Z,29.08
2023-01-23T00:50:21.965Z,29.75
2023-01-23T00:50:44.912Z,30.83
2023-01-23T00:51:07.781Z,29.83
2023-01-23T00:51:32.146Z,28.88
2023-01-23T00:51:56.540Z,30.38
2023-01-23T00:52:19.240Z,30.92
2023-01-23T00:52:42.031Z,31.25
2023-01-23T00:53:04.857Z,31.88
2023-01-23T00:53:27.580Z,31.25
2023-01-23T00:53:50.372Z,32.25
2023-01-23T00:54:13.122Z,32.13
2023-01-23T00:54:38.231Z,30.73
2023-01-23T00:55:01.018Z,29.67
2023-01-23T00:55:24.936Z,30.48
2023-01-23T00:55:49.971Z,29.58
2023-01-23T00:56:12.692Z,29.42
2023-01-23T00:56:35.597Z,29.48
2023-01-23T00:56:58.366Z,30.17
2023-01-23T00:57:21.120Z,30.38
2023-01-23T00:57:43.918Z,31.40
2023-01-23T00:58:06.736Z,30.42
2023-01-23T00:58:29.437Z,29.67
2023-01-23T00:58:52.156Z,29.23
2023-01-23T00:59:15.239Z,29.50
2023-01-23T00:59:37.951Z,30.58
2023-01-23T01:00:00.837Z,31.73
2023-01-23T01:00:23.810Z,29.65
2023-01-23T01:00:46.572Z,29.50
2023-01-23T01:01:09.301Z,29.08
2023-01-23T01:01:32.899Z,28.55
2023-01-23T01:01:55.746Z,29.13
2023-01-23T01:02:18.539Z,29.23
2023-01-23T01:02:41.401Z,28.40
2023-01-23T01:03:04.535Z,28.92
2023-01-23T01:03:27.663Z,29.95
2023-01-23T01:03:50.513Z,29.67
2023-01-23T01:04:13.240Z,28.80
2023-01-23T01:04:35.977Z,28.85
2023-01-23T01:04:58.903Z,29.10
2023-01-23T01:05:22.115Z,29.48
2023-01-23T01:05:44.813Z,29.23
2023-01-23T01:06:07.637Z,31.50
2023-01-23T01:06:31.897Z,31.08
2023-01-23T01:06:54.746Z,30.27
2023-01-23T01:07:17.450Z,29.48
2023-01-23T01:07:40.293Z,29.08
2023-01-23T01:08:03.031Z,29.05
2023-01-23T01:08:25.726Z,30.42
2023-01-23T01:08:48.556Z,29.25
2023-01-23T01:09:11.318Z,29.35
2023-01-23T01:09:34.003Z,29.48
2023-01-23T01:09:56.763Z,29.17
2023-01-23T01:10:19.868Z,29.13
2023-01-23T01:10:42.791Z,27.60
2023-01-23T01:11:05.652Z,28.55
2023-01-23T01:11:28.373Z,28.13
2023-01-23T01:11:51.201Z,27.67
2023-01-23T01:12:14.391Z,27.27
2023-01-23T01:12:37.217Z,27.23
2023-01-23T01:13:01.312Z,26.30
2023-01-23T01:13:25.303Z,26.30
2023-01-23T01:13:48.004Z,25.10
2023-01-23T01:14:13.650Z,25.55
2023-01-23T01:14:36.516Z,25.70
2023-01-23T01:14:59.175Z,24.45
2023-01-23T01:15:21.856Z,24.98
2023-01-23T01:15:44.632Z,26.48
2023-01-23T01:16:10.419Z,26.48
2023-01-23T01:16:33.467Z,26.73
2023-01-23T01:16:56.564Z,26.73
2023-01-23T01:17:19.527Z,25.80
2023-01-23T01:17:42.235Z,24.40
2023-01-23T01:18:05.237Z,24.10
2023-01-23T01:18:28.081Z,24.08
2023-01-23T01:18:50.787Z,24.17
2023-01-23T01:19:13.701Z,24.40
2023-01-23T01:19:36.805Z,23.33
2023-01-23T01:19:59.516Z,23.30
2023-01-23T01:20:23.906Z,24.02
2023-01-23T01:20:46.731Z,23.15
2023-01-23T01:21:10.149Z,23.75
2023-01-23T01:21:35.959Z,23.85
2023-01-23T01:21:58.605Z,23.85
2023-01-23T01:22:21.387Z,23.85
2023-01-23T01:22:44.056Z,24.48
2023-01-23T01:23:06.782Z,24.17
2023-01-23T01:23:29.517Z,24.83
2023-01-23T01:23:52.205Z,24.60
2023-01-23T01:24:14.882Z,24.55
2023-01-23T01:24:37.621Z,24.65
2023-01-23T01:25:00.404Z,25.20
2023-01-23T01:25:23.221Z,24.98
2023-01-23T01:25:46.114Z,23.77
2023-01-23T01:26:09.103Z,24.02
2023-01-23T01:26:31.800Z,23.35
2023-01-23T01:26:54.554Z,24.02
2023-01-23T01:27:17.277Z,23.95
2023-01-23T01:27:40.031Z,24.00
2023-01-23T01:28:02.821Z,22.33
2023-01-23T01:28:27.387Z,22.00
2023-01-23T01:28:50.135Z,22.38
2023-01-23T01:29:12.861Z,21.95
2023-01-23T01:29:35.571Z,22.02
2023-01-23T01:29:58.285Z,22.40
2023-01-23T01:30:25.535Z,23.00
2023-01-23T01:30:48.341Z,22.63
2023-01-23T01:31:12.524Z,22.77
2023-01-23T01:31:35.625Z,22.88
2023-01-23T01:31:58.667Z,22.70
2023-01-23T01:32:21.523Z,22.27
2023-01-23T01:32:44.255Z,22.25
2023-01-23T01:33:07.039Z,21.48
2023-01-23T01:33:29.808Z,22.48
2023-01-23T01:33:52.877Z,21.38
2023-01-23T01:34:15.503Z,21.45
2023-01-23T01:34:38.251Z,22.13
2023-01-23T01:35:01.165Z,21.85
2023-01-23T01:35:24.009Z,21.20
2023-01-23T01:35:46.822Z,21.17
2023-01-23T01:36:10.104Z,21.00
2023-01-23T01:36:34.350Z,21.75
2023-01-23T01:36:57.077Z,20.85
2023-01-23T01:37:22.646Z,20.63
2023-01-23T01:37:45.396Z,20.65
2023-01-23T01:38:09.183Z,21.08
2023-01-23T01:38:32.934Z,20.27
2023-01-23T01:38:55.806Z,19.25
2023-01-23T01:39:18.560Z,19.52
2023-01-23T01:39:41.277Z,19.85
2023-01-23T01:40:04.353Z,19.83
2023-01-23T01:40:29.601Z,20.67
2023-01-23T01:40:52.303Z,20.08
2023-01-23T01:41:16.422Z,19.30
2023-01-23T01:41:39.101Z,18.15
2023-01-23T01:42:01.773Z,17.58
2023-01-23T01:42:24.481Z,17.23
2023-01-23T01:42:49.281Z,17.33
2023-01-23T01:43:18.517Z,16.55
2023-01-23T01:43:41.353Z,16.83
2023-01-23T01:44:04.337Z,16.52
2023-01-23T01:44:28.393Z,17.45
2023-01-23T01:44:55.131Z,17.75
2023-01-23T01:45:54.737Z,17.40
2023-01-23T01:46:19.614Z,16.95
2023-01-23T01:46:42.437Z,16.73
2023-01-23T01:47:05.535Z,16.80
2023-01-23T01:47:30.804Z,16.77
2023-01-23T01:47:56.002Z,15.80
2023-01-23T01:48:20.932Z,15.23
2023-01-23T01:48:47.242Z,16.02
2023-01-23T01:49:11.366Z,17.23
2023-01-23T01:49:35.551Z,17.40
2023-01-23T01:50:02.216Z,16.48
2023-01-23T01:50:25.041Z,17.00
2023-01-23T01:50:47.747Z,16.58
2023-01-23T01:51:14.932Z,16.55
2023-01-23T01:51:41.526Z,16.85
2023-01-23T01:52:05.771Z,16.83
2023-01-23T01:52:28.640Z,15.85
2023-01-23T01:52:53.606Z,15.18
2023-01-23T01:53:16.321Z,15.40
2023-01-23T01:53:39.061Z,14.75
2023-01-23T01:54:06.938Z,14.70
2023-01-23T01:54:33.257Z,15.68
2023-01-23T01:54:57.620Z,15.20
2023-01-23T01:55:20.325Z,14.98
2023-01-23T01:55:43.043Z,14.90
2023-01-23T01:56:06.535Z,13.88
2023-01-23T01:56:29.523Z,13.60
2023-01-23T01:56:54.415Z,13.90
2023-01-23T01:57:18.830Z,12.80
2023-01-23T01:57:43.361Z,12.98
2023-01-23T01:58:06.137Z,13.02
2023-01-23T01:58:28.897Z,12.35
2023-01-23T01:58:52.398Z,13.00
2023-01-23T01:59:15.117Z,12.52
2023-01-23T01:59:40.471Z,12.15
2023-01-23T02:00:06.262Z,12.32
2023-01-23T02:00:28.971Z,11.57
2023-01-23T02:00:51.785Z,11.75
2023-01-23T02:01:14.568Z,12.30
2023-01-23T02:01:37.881Z,11.98
2023-01-23T02:02:05.412Z,11.68
2023-01-23T02:02:33.456Z,12.38
2023-01-23T02:02:59.061Z,11.93
2023-01-23T02:03:21.770Z,12.52
2023-01-23T02:03:44.808Z,12.27
2023-01-23T02:04:07.580Z,12.10
2023-01-23T02:04:30.219Z,10.90
2023-01-23T02:04:54.789Z,11.50
2023-01-23T02:05:19.362Z,11.00
2023-01-23T02:05:43.526Z,10.55
2023-01-23T02:06:06.460Z,9.98
2023-01-23T02:06:29.253Z,10.20
2023-01-23T02:06:53.521Z,9.60
2023-01-23T02:07:20.556Z,9.10
2023-01-23T02:07:45.275Z,10.30
2023-01-23T02:08:11.387Z,9.50
2023-01-23T02:08:36.223Z,8.20
2023-01-23T02:09:02.205Z,7.95
2023-01-23T02:09:25.648Z,7.80
2023-01-23T02:09:48.447Z,7.50
2023-01-23T02:10:13.011Z,7.88
2023-01-23T02:10:37.452Z,8.63
2023-01-23T02:11:03.715Z,9.02
2023-01-23T02:11:26.554Z,8.40
2023-01-23T02:11:50.108Z,8.95
2023-01-23T02:12:12.847Z,9.20
2023-01-23T02:12:35.531Z,9.70
2023-01-23T02:13:25.957Z,9.27
2023-01-23T02:13:48.714Z,9.32
2023-01-23T02:14:11.590Z,9.85
2023-01-23T02:14:34.232Z,10.40
2023-01-23T02:14:56.946Z,11.15
2023-01-23T02:15:20.972Z,10.90
2023-01-23T02:15:43.662Z,11.10
2023-01-23T02:16:07.728Z,11.77
2023-01-23T02:16:32.888Z,11.50
2023-01-23T02:17:00.017Z,11.90
2023-01-23T02:17:22.792Z,13.32
2023-01-23T02:17:45.519Z,13.30
2023-01-23T02:18:08.193Z,13.55
2023-01-23T02:18:34.808Z,13.48
2023-01-23T02:19:01.010Z,14.45
2023-01-23T02:19:39.918Z,14.63
2023-01-23T02:20:05.926Z,14.13
2023-01-23T02:20:28.906Z,14.25
2023-01-23T02:20:52.240Z,15.30
2023-01-23T02:21:15.868Z,15.20
2023-01-23T02:21:39.420Z,15.48
2023-01-23T02:22:08.491Z,15.23
2023-01-23T02:22:36.341Z,15.60
2023-01-23T02:23:02.166Z,16.00
2023-01-23T02:23:30.233Z,15.65
2023-01-23T02:24:00.835Z,16.08
2023-01-23T02:24:26.409Z,16.20
2023-01-23T02:24:52.701Z,16.83
2023-01-23T02:25:20.658Z,16.70
2023-01-23T02:25:51.849Z,16.30
2023-01-23T02:26:16.497Z,16.65
2023-01-23T02:26:40.531Z,17.05
2023-01-23T02:27:03.329Z,16.58
2023-01-23T02:27:26.084Z,17.45
2023-01-23T02:27:48.986Z,16.30
2023-01-23T02:28:11.786Z,16.17
2023-01-23T02:28:39.208Z,16.23
2023-01-23T02:29:01.954Z,17.15
2023-01-23T02:29:25.943Z,17.23
2023-01-23T02:29:48.636Z,16.48
2023-01-23T02:30:13.960Z,16.55
2023-01-23T02:30:36.804Z,16.67
2023-01-23T02:30:59.584Z,16.25
2023-01-23T02:31:22.642Z,16.75
2023-01-23T02:31:46.178Z,16.48
2023-01-23T02:32:09.624Z,16.65
2023-01-23T02:32:32.305Z,17.17
2023-01-23T02:32:55.206Z,16.75
2023-01-23T02:33:54.420Z,16.77
2023-01-23T02:34:17.132Z,16.48
2023-01-23T02:34:39.929Z,16.58
2023-01-23T02:35:07.981Z,16.20
2023-01-23T02:35:31.252Z,16.98
2023-01-23T02:35:55.377Z,16.83
2023-01-23T02:36:23.159Z,17.02
2023-01-23T02:36:48.017Z,17.13
2023-01-23T02:37:10.861Z,16.88
2023-01-23T02:37:34.585Z,17.00
2023-01-23T02:38:00.112Z,16.00
2023-01-23T02:38:25.293Z,16.70
2023-01-23T02:38:54.895Z,16.95
2023-01-23T02:39:18.280Z,16.90
2023-01-23T02:39:42.237Z,16.83
2023-01-23T02:40:09.598Z,17.38
2023-01-23T02:40:33.064Z,17.08
2023-01-23T02:40:57.768Z,16.80
2023-01-23T02:41:23.370Z,16.73
2023-01-23T02:41:47.330Z,16.35
2023-01-23T02:42:10.106Z,16.98
2023-01-23T02:42:32.802Z,16.55
2023-01-23T02:42:55.531Z,16.10
2023-01-23T02:43:21.481Z,16.50
2023-01-23T02:43:44.187Z,16.60
2023-01-23T02:44:09.951Z,16.50
2023-01-23T02:44:32.709Z,16.17
2023-01-23T02:44:57.126Z,16.58
2023-01-23T02:45:19.837Z,17.33
2023-01-23T02:45:42.925Z,16.70
2023-01-23T02:46:06.163Z,16.85
2023-01-23T02:46:29.249Z,16.75
2023-01-23T02:46:53.970Z,17.08
2023-01-23T02:47:16.660Z,17.35
2023-01-23T02:47:39.381Z,16.95
2023-01-23T02:48:02.119Z,17.08
2023-01-23T02:48:24.942Z,17.02
2023-01-23T02:48:48.581Z,16.75
2023-01-23T02:49:11.435Z,17.38
2023-01-23T02:49:34.168Z,17.63
2023-01-23T02:49:56.921Z,16.55
2023-01-23T02:50:20.177Z,16.90
2023-01-23T02:50:45.365Z,17.00
2023-01-23T02:51:08.257Z,16.25
2023-01-23T02:51:31.756Z,15.68
2023-01-23T02:51:55.095Z,16.00
2023-01-23T02:52:17.861Z,16.52
2023-01-23T02:52:40.547Z,16.38
2023-01-23T02:53:03.428Z,16.48
2023-01-23T02:53:26.976Z,15.98
2023-01-23T02:53:49.975Z,16.20
2023-01-23T02:54:12.670Z,15.70
2023-01-23T02:54:35.421Z,15.73
2023-01-23T02:54:58.156Z,14.85
2023-01-23T02:55:20.953Z,14.77
2023-01-23T02:55:45.118Z,14.82
2023-01-23T02:56:09.566Z,15.20
2023-01-23T02:56:32.295Z,15.25
2023-01-23T02:56:57.245Z,16.00
2023-01-23T02:57:19.961Z,15.73
2023-01-23T02:57:42.721Z,16.08
2023-01-23T02:58:24.123Z,15.80
2023-01-23T02:59:05.777Z,15.70
2023-01-23T02:59:47.216Z,16.40
2023-01-23T03:00:17.877Z,15.55
2023-01-23T03:00:42.114Z,16.08
2023-01-23T03:01:05.336Z,16.35
2023-01-23T03:01:28.080Z,16.58
2023-01-23T03:01:51.652Z,16.40
2023-01-23T03:02:15.614Z,17.38
2023-01-23T03:02:39.453Z,16.40
2023-01-23T03:03:02.341Z,16.40
2023-01-23T03:03:25.049Z,16.90
2023-01-23T03:03:51.537Z,16.33
2023-01-23T03:04:14.306Z,16.02
2023-01-23T03:04:37.092Z,15.88
2023-01-23T03:04:59.824Z,16.13
2023-01-23T03:05:22.700Z,15.73
2023-01-23T03:05:45.606Z,15.70
2023-01-23T03:06:08.474Z,15.60
2023-01-23T03:06:38.319Z,16.00
2023-01-23T03:07:01.046Z,16.30
2023-01-23T03:07:23.758Z,15.93
2023-01-23T03:07:46.483Z,15.85
2023-01-23T03:08:09.226Z,15.45
2023-01-23T03:08:36.978Z,15.38
2023-01-23T03:09:00.568Z,15.55
2023-01-23T03:09:23.399Z,14.88
2023-01-23T03:09:49.978Z,15.73
2023-01-23T03:10:12.741Z,16.00
2023-01-23T03:10:35.488Z,15.82
2023-01-23T03:10:58.233Z,15.07
2023-01-23T03:11:23.703Z,15.88
2023-01-23T03:11:46.601Z,14.68
2023-01-23T03:12:09.433Z,15.20
2023-01-23T03:12:32.160Z,15.43
2023-01-23T03:12:57.526Z,15.10
2023-01-23T03:13:20.336Z,15.63
2023-01-23T03:13:43.048Z,15.38
2023-01-23T03:14:06.906Z,15.45
2023-01-23T03:14:31.871Z,15.85
2023-01-23T03:14:56.175Z,15.45
2023-01-23T03:15:18.935Z,15.70
2023-01-23T03:15:44.207Z,15.93
2023-01-23T03:16:07.905Z,16.42
2023-01-23T03:16:30.740Z,16.23
2023-01-23T03:16:54.288Z,16.52
2023-01-23T03:17:17.025Z,16.80
2023-01-23T03:17:40.389Z,17.10
2023-01-23T03:18:03.331Z,16.98
2023-01-23T03:18:28.016Z,16.30
2023-01-23T03:18:54.668Z,16.30
2023-01-23T03:19:19.282Z,16.52
2023-01-23T03:19:41.954Z,16.77
2023-01-23T03:20:06.560Z,16.38
2023-01-23T03:20:29.385Z,16.13
2023-01-23T03:20:52.171Z,15.70
2023-01-23T03:21:14.811Z,16.45
2023-01-23T03:21:40.133Z,16.83
2023-01-23T03:22:02.984Z,16.05
2023-01-23T03:22:26.616Z,15.68
2023-01-23T03:22:49.426Z,16.13
2023-01-23T03:23:12.256Z,16.50
2023-01-23T03:23:36.841Z,16.58
2023-01-23T03:23:59.667Z,16.27
2023-01-23T03:24:22.566Z,16.20
2023-01-23T03:24:45.301Z,16.30
2023-01-23T03:25:09.035Z,16.35
2023-01-23T03:25:31.768Z,16.05
2023-01-23T03:25:58.697Z,15.55
2023-01-23T03:26:23.039Z,16.08
2023-01-23T03:26:46.759Z,15.73
2023-01-23T03:27:09.545Z,16.27
2023-01-23T03:27:32.989Z,16.52
2023-01-23T03:27:55.681Z,16.05
2023-01-23T03:28:37.034Z,16.08
2023-01-23T03:29:18.391Z,15.55
2023-01-23T03:29:59.874Z,15.88
2023-01-23T03:30:22.704Z,15.25
2023-01-23T03:30:45.468Z,15.18
2023-01-23T03:31:08.290Z,15.60
2023-01-23T03:31:31.092Z,15.65
2023-01-23T03:31:53.872Z,15.52
2023-01-23T03:32:17.810Z,15.48
2023-01-23T03:32:40.520Z,15.48
2023-01-23T03:33:03.247Z,14.85
2023-01-23T03:33:25.974Z,14.73
2023-01-23T03:33:48.976Z,14.85
2023-01-23T03:34:11.691Z,14.80
2023-01-23T03:34:34.395Z,15.32
2023-01-23T03:34:57.765Z,15.15
2023-01-23T03:35:21.540Z,14.80
2023-01-23T03:35:44.278Z,14.23
2023-01-23T03:36:08.190Z,14.20
2023-01-23T03:36:30.890Z,14.52
2023-01-23T03:36:54.257Z,14.07
2023-01-23T03:37:17.618Z,14.85
2023-01-23T03:37:40.355Z,15.02
2023-01-23T03:38:03.101Z,14.23
2023-01-23T03:38:25.806Z,15.10
2023-01-23T03:39:07.134Z,14.90
2023-01-23T03:39:49.820Z,14.48
2023-01-23T03:40:35.082Z,13.80
2023-01-23T03:41:16.646Z,14.50
2023-01-23T03:41:42.259Z,14.20
2023-01-23T03:42:05.064Z,14.95
2023-01-23T03:42:27.766Z,15.05
2023-01-23T03:42:50.775Z,14.93
2023-01-23T03:43:13.455Z,14.88
2023-01-23T03:43:36.172Z,14.82
2023-01-23T03:43:58.925Z,16.08
2023-01-23T03:44:21.818Z,16.42
2023-01-23T03:44:44.574Z,16.63
2023-01-23T03:45:08.585Z,15.75
2023-01-23T03:45:31.661Z,16.58
2023-01-23T03:45:54.503Z,16.08
2023-01-23T03:46:17.144Z,16.42
2023-01-23T03:46:39.871Z,16.42
2023-01-23T03:47:02.610Z,15.23
2023-01-23T03:47:26.570Z,15.48
2023-01-23T03:47:49.345Z,15.23
2023-01-23T03:48:15.525Z,16.20
2023-01-23T03:48:38.240Z,17.05
2023-01-23T03:49:00.990Z,16.23
2023-01-23T03:49:23.760Z,16.92
2023-01-23T03:49:46.429Z,16.90
2023-01-23T03:50:10.588Z,16.30
2023-01-23T03:50:33.402Z,15.68
2023-01-23T03:50:56.162Z,15.98
2023-01-23T03:51:18.907Z,16.65
2023-01-23T03:51:41.749Z,16.15
2023-01-23T03:52:04.808Z,17.13
2023-01-23T03:52:27.636Z,16.50
2023-01-23T03:52:50.436Z,16.77
2023-01-23T03:53:13.468Z,16.85
2023-01-23T03:53:36.155Z,17.40
2023-01-23T03:53:58.891Z,17.90
2023-01-23T03:54:21.621Z,18.50
2023-01-23T03:54:44.322Z,18.15
2023-01-23T03:55:07.440Z,18.58
2023-01-23T03:55:30.166Z,18.65
2023-01-23T03:55:52.880Z,18.80
2023-01-23T03:56:15.673Z,17.98
2023-01-23T03:56:38.481Z,19.02
2023-01-23T03:57:02.650Z,19.25
2023-01-23T03:57:25.357Z,18.83
2023-01-23T03:57:50.195Z,19.67
2023-01-23T03:58:12.961Z,18.80
2023-01-23T03:58:35.722Z,18.77
2023-01-23T03:58:59.059Z,18.63
2023-01-23T03:59:21.776Z,18.52
2023-01-23T03:59:44.610Z,17.23
2023-01-23T04:00:08.766Z,17.05
2023-01-23T04:00:31.784Z,16.45
2023-01-23T04:00:55.264Z,16.77
2023-01-23T04:01:17.951Z,17.95
2023-01-23T04:01:40.740Z,18.73
2023-01-23T04:02:05.303Z,18.35
2023-01-23T04:02:29.349Z,18.58
2023-01-23T04:02:52.174Z,19.02
2023-01-23T04:03:14.960Z,19.38
2023-01-23T04:03:37.766Z,19.00
2023-01-23T04:04:00.490Z,17.75
2023-01-23T04:04:23.212Z,17.30
2023-01-23T04:04:46.081Z,15.80
2023-01-23T04:05:09.545Z,14.90
2023-01-23T04:05:32.305Z,16.15
2023-01-23T04:05:57.688Z,15.77
2023-01-23T04:06:20.478Z,14.75
2023-01-23T04:06:43.203Z,14.20
2023-01-23T04:07:09.352Z,15.00
2023-01-23T04:07:32.050Z,15.35
2023-01-23T04:07:54.745Z,15.73
2023-01-23T04:08:17.483Z,14.35
2023-01-23T04:08:40.221Z,13.55
2023-01-23T04:09:03.041Z,13.85
2023-01-23T04:09:28.188Z,13.75
2023-01-23T04:09:50.885Z,12.77
2023-01-23T04:10:13.688Z,11.68
2023-01-23T04:10:36.542Z,10.23
2023-01-23T04:11:03.949Z,9.13
2023-01-23T04:11:27.030Z,9.70
2023-01-23T04:11:49.720Z,10.23
2023-01-23T04:12:14.002Z,9.70
2023-01-23T04:12:36.699Z,9.32
2023-01-23T04:12:59.436Z,8.73
2023-01-23T04:13:22.156Z,8.85
2023-01-23T04:13:47.054Z,8.88
2023-01-23T04:14:09.922Z,8.65
2023-01-23T04:14:37.357Z,8.25
2023-01-23T04:15:00.375Z,8.70
2023-01-23T04:15:23.389Z,8.98
2023-01-23T04:15:46.127Z,8.23
2023-01-23T04:16:11.477Z,7.95
2023-01-23T04:16:34.265Z,7.28
2023-01-23T04:17:00.041Z,7.18
2023-01-23T04:17:25.165Z,7.35
2023-01-23T04:17:47.970Z,7.57
2023-01-23T04:18:10.641Z,7.32
2023-01-23T04:18:33.681Z,7.10
2023-01-23T04:18:57.529Z,7.05
2023-01-23T04:19:20.928Z,6.82
2023-01-23T04:19:43.589Z,7.25
2023-01-23T04:20:07.687Z,7.30
2023-01-23T04:20:30.375Z,6.70
2023-01-23T04:20:53.081Z,6.35
2023-01-23T04:21:15.929Z,6.50
2023-01-23T04:21:41.625Z,6.68
2023-01-23T04:22:05.322Z,6.65
2023-01-23T04:22:28.320Z,7.18
2023-01-23T04:22:51.003Z,7.45
2023-01-23T04:23:13.770Z,7.25
2023-01-23T04:23:36.593Z,7.32
2023-01-23T04:23:59.252Z,6.57
2023-01-23T04:24:21.946Z,6.47
2023-01-23T04:24:44.647Z,6.90
2023-01-23T04:25:08.326Z,6.55
2023-01-23T04:25:31.246Z,6.78
2023-01-23T04:25:54.062Z,6.38
2023-01-23T04:26:16.823Z,6.68
2023-01-23T04:26:42.049Z,6.88
2023-01-23T04:27:04.850Z,6.80
2023-01-23T04:27:31.534Z,6.70
2023-01-23T04:27:56.805Z,6.57
2023-01-23T04:28:19.604Z,6.60
2023-01-23T04:28:44.965Z,6.53
2023-01-23T04:29:07.671Z,6.57
2023-01-23T04:29:33.336Z,6.20
2023-01-23T04:29:56.062Z,7.07
2023-01-23T04:30:21.491Z,6.95
2023-01-23T04:30:44.436Z,6.60
2023-01-23T04:31:09.407Z,6.15
2023-01-23T04:31:32.424Z,6.18
2023-01-23T04:31:55.263Z,6.20
2023-01-23T04:32:20.618Z,6.40
2023-01-23T04:32:43.444Z,5.95
2023-01-23T04:33:06.222Z,6.05
2023-01-23T04:33:29.037Z,6.35
2023-01-23T04:33:51.756Z,5.90
2023-01-23T04:34:14.507Z,5.85
2023-01-23T04:34:37.241Z,5.80
2023-01-23T04:35:02.395Z,6.10
2023-01-23T04:35:25.203Z,5.95
2023-01-23T04:35:53.387Z,5.75
2023-01-23T04:36:16.059Z,5.65
2023-01-23T04:36:38.887Z,5.30
2023-01-23T04:37:04.061Z,5.78
2023-01-23T04:37:26.740Z,6.00
2023-01-23T04:37:49.536Z,6.20
2023-01-23T04:38:12.322Z,6.25
2023-01-23T04:38:35.053Z,5.82
2023-01-23T04:38:58.742Z,5.90
2023-01-23T04:39:21.446Z,5.80
2023-01-23T04:39:44.453Z,6.22
2023-01-23T04:40:08.519Z,6.13
2023-01-23T04:40:31.207Z,6.05
2023-01-23T04:40:53.921Z,6.10
2023-01-23T04:41:19.700Z,5.65
2023-01-23T04:41:42.471Z,5.95
2023-01-23T04:42:05.286Z,5.72
2023-01-23T04:42:29.537Z,6.05
2023-01-23T04:42:52.318Z,6.18
2023-01-23T04:43:15.101Z,5.80
2023-01-23T04:43:37.811Z,5.88
2023-01-23T04:44:20.160Z,5.97
2023-01-23T04:44:43.098Z,5.90
2023-01-23T04:45:07.621Z,5.82
2023-01-23T04:45:30.356Z,5.90
2023-01-23T04:45:53.622Z,6.20
2023-01-23T04:46:16.475Z,6.28
2023-01-23T04:46:42.102Z,6.28
2023-01-23T04:47:04.881Z,5.93
2023-01-23T04:47:27.601Z,5.90
2023-01-23T04:47:50.309Z,5.95
2023-01-23T04:48:15.521Z,5.50
2023-01-23T04:48:38.258Z,6.30
2023-01-23T04:49:00.966Z,6.10
2023-01-23T04:49:24.360Z,5.93
2023-01-23T04:49:47.121Z,6.00
2023-01-23T04:50:10.960Z,6.15
2023-01-23T04:50:33.689Z,6.10
2023-01-23T04:50:56.448Z,5.88
2023-01-23T04:51:19.244Z,5.82
2023-01-23T04:51:44.538Z,6.03
2023-01-23T04:52:07.307Z,6.00
2023-01-23T04:52:30.032Z,6.10
2023-01-23T04:52:52.963Z,6.15
2023-01-23T04:53:15.672Z,6.00
2023-01-23T04:53:38.401Z,6.05
2023-01-23T04:54:01.123Z,6.13
2023-01-23T04:54:26.364Z,6.10
2023-01-23T04:54:49.451Z,5.60
2023-01-23T04:55:12.281Z,5.55
2023-01-23T04:55:35.119Z,6.00
2023-01-23T04:55:57.886Z,5.93
2023-01-23T04:56:23.623Z,5.70
2023-01-23T04:56:46.332Z,5.57
2023-01-23T04:57:09.144Z,6.20
2023-01-23T04:57:33.519Z,6.05
2023-01-23T04:57:58.643Z,6.13
2023-01-23T04:58:21.348Z,6.05
2023-01-23T04:58:46.300Z,5.88
2023-01-23T04:59:09.127Z,5.90
2023-01-23T04:59:34.236Z,5.97
2023-01-23T04:59:58.498Z,6.30
2023-01-23T05:00:22.979Z,6.20
2023-01-23T05:00:47.920Z,6.18
2023-01-23T05:01:10.873Z,5.88
2023-01-23T05:01:36.817Z,5.80
2023-01-23T05:01:59.543Z,6.10
2023-01-23T05:02:24.514Z,6.72
2023-01-23T05:02:47.337Z,6.88
2023-01-23T05:03:10.092Z,6.85
2023-01-23T05:03:35.279Z,6.90
2023-01-23T05:03:58.244Z,6.80
2023-01-23T05:04:24.034Z,7.07
2023-01-23T05:04:47.051Z,7.18
2023-01-23T05:05:10.146Z,6.97
2023-01-23T05:05:33.617Z,7.18
2023-01-23T05:05:56.299Z,7.43
2023-01-23T05:06:21.655Z,7.38
2023-01-23T05:06:44.381Z,7.03
2023-01-23T05:07:09.271Z,7.10
2023-01-23T05:07:32.001Z,7.43
2023-01-23T05:07:54.737Z,7.68
2023-01-23T05:08:17.455Z,7.88
2023-01-23T05:08:40.280Z,7.53
2023-01-23T05:09:03.023Z,7.60
2023-01-23T05:09:25.701Z,7.55
2023-01-23T05:09:48.384Z,7.00
2023-01-23T05:10:11.728Z,7.30
2023-01-23T05:10:34.476Z,7.38